Time;durP1;ratioP1;P1;durP2;ratioP2;P2;SDS_P1;SDS_P2;PMS_P1;PMS_P2;Temp;Humidity;BMP_temperature;BMP_pressure;BME280_temperature;BME280_humidity;BME280_pressure;Samples;Min_cycle;Max_cycle;Signal;HPM_P1;HPM_P2
2021/05/12 00:01:25;;;;;;;2.00;1.60;;;;;;;11.91;100.00;95695.97;6191414;23;20494;-91
2021/05/12 00:03:51;;;;;;;2.40;2.20;;;;;;;11.85;100.00;95685.44;6191088;23;20453;-92
2021/05/12 00:06:17;;;;;;;2.73;2.00;;;;;;;11.82;100.00;95698.09;6190894;23;20415;-92
2021/05/12 00:08:43;;;;;;;6.63;2.00;;;;;;;11.88;100.00;95697.81;6192924;23;20393;-92
2021/05/12 00:11:10;;;;;;;2.97;2.17;;;;;;;11.84;100.00;95694.81;6194274;23;20433;-91
2021/05/12 00:13:36;;;;;;;2.57;1.90;;;;;;;11.89;100.00;95698.53;6192463;23;20483;-91
2021/05/12 00:16:03;;;;;;;5.20;2.07;;;;;;;11.87;100.00;95698.41;6197913;23;20438;-90
2021/05/12 00:18:35;;;;;;;2.17;1.97;;;;;;;11.85;100.00;95698.25;6213811;23;20442;-90
2021/05/12 00:21:02;;;;;;;3.63;2.00;;;;;;;11.90;100.00;95702.69;6194132;23;20891;-91
2021/05/12 00:23:40;;;;;;;2.23;2.00;;;;;;;11.87;100.00;95706.50;6190511;23;20893;-91
2021/05/12 00:26:07;;;;;;;1.90;1.70;;;;;;;11.88;100.00;95708.66;6190542;23;20506;-93
2021/05/12 00:28:34;;;;;;;1.70;1.60;;;;;;;11.92;100.00;95708.94;6190901;23;20483;-92
2021/05/12 00:31:00;;;;;;;2.47;1.97;;;;;;;11.86;100.00;95703.09;6190909;23;20444;-92
2021/05/12 00:33:26;;;;;;;3.37;2.30;;;;;;;11.87;100.00;95706.50;6191534;23;20400;-91
2021/05/12 00:35:52;;;;;;;4.00;2.10;;;;;;;11.88;100.00;95713.34;6191085;23;20394;-91
2021/05/12 00:38:19;;;;;;;1.87;1.77;;;;;;;11.91;100.00;95720.31;6191609;23;20367;-91
2021/05/12 00:40:45;;;;;;;4.70;2.63;;;;;;;11.87;100.00;95722.75;6192035;23;20412;-92
2021/05/12 00:43:11;;;;;;;2.67;2.20;;;;;;;11.93;100.00;95723.19;6191823;23;20378;-92
2021/05/12 00:45:39;;;;;;;2.00;1.80;;;;;;;11.86;100.00;95722.03;6190428;23;20445;-91
2021/05/12 00:48:07;;;;;;;3.13;2.83;;;;;;;11.85;100.00;95725.28;6191236;23;20410;-92
2021/05/12 00:50:33;;;;;;;6.20;2.57;;;;;;;11.78;100.00;95732.22;6192054;23;20421;-91
2021/05/12 00:53:00;;;;;;;1.87;1.70;;;;;;;11.80;100.00;95722.28;6191437;23;20378;-91
2021/05/12 00:55:27;;;;;;;2.13;1.93;;;;;;;11.73;100.00;95717.69;6191368;23;20734;-91
2021/05/12 00:57:53;;;;;;;3.53;1.40;;;;;;;11.64;100.00;95721.06;6191054;23;20478;-91
2021/05/12 01:00:23;;;;;;;2.93;1.83;;;;;;;11.65;100.00;95722.47;6191175;23;20796;-91
2021/05/12 01:02:51;;;;;;;3.20;2.23;;;;;;;11.57;100.00;95721.16;6190444;23;20522;-91
2021/05/12 01:05:25;;;;;;;5.93;2.37;;;;;;;11.55;100.00;95721.72;6190709;23;20395;-91
2021/05/12 01:07:52;;;;;;;5.93;1.70;;;;;;;11.53;100.00;95721.56;6191053;23;20965;-91
2021/05/12 01:10:19;;;;;;;3.60;1.80;;;;;;;11.47;100.00;95723.81;6190555;23;20378;-91
2021/05/12 01:12:46;;;;;;;3.40;1.50;;;;;;;11.43;100.00;95722.81;6189158;23;20410;-91
2021/05/12 01:15:13;;;;;;;2.83;1.60;;;;;;;11.41;100.00;95730.72;6191011;23;20444;-91
2021/05/12 01:17:39;;;;;;;5.63;1.50;;;;;;;11.22;100.00;95737.47;6190272;23;20432;-91
2021/05/12 01:20:08;;;;;;;4.33;1.83;;;;;;;11.23;100.00;95740.88;6189720;23;20418;-90
2021/05/12 01:22:35;;;;;;;1.67;1.30;;;;;;;11.18;100.00;95731.75;6189933;23;20429;-91
2021/05/12 01:25:01;;;;;;;1.70;1.33;;;;;;;11.13;100.00;95732.00;6190185;23;20499;-91
2021/05/12 01:27:28;;;;;;;1.80;1.20;;;;;;;11.18;100.00;95733.75;6194773;23;20398;-91
2021/05/12 01:29:54;;;;;;;1.10;0.90;;;;;;;11.17;100.00;95738.44;6195836;23;20461;-91
2021/05/12 01:32:21;;;;;;;1.30;1.20;;;;;;;11.16;100.00;95736.28;6195639;23;20422;-90
2021/05/12 01:34:47;;;;;;;2.60;1.17;;;;;;;11.13;100.00;95730.00;6195872;23;20393;-91
2021/05/12 01:37:13;;;;;;;6.53;1.53;;;;;;;11.10;100.00;95733.13;6196993;23;20428;-91
2021/05/12 01:39:40;;;;;;;1.20;1.10;;;;;;;11.10;100.00;95733.13;6193133;23;20435;-91
2021/05/12 01:42:06;;;;;;;4.87;1.50;;;;;;;11.15;100.00;95737.56;6191685;23;20438;-91
2021/05/12 01:44:32;;;;;;;3.43;1.47;;;;;;;11.02;100.00;95735.19;6202772;23;20378;-91
2021/05/12 01:46:59;;;;;;;4.80;1.57;;;;;;;11.03;100.00;95740.03;6206788;23;20428;-91
2021/05/12 01:49:29;;;;;;;1.47;1.30;;;;;;;11.06;100.00;95743.59;6201280;23;20363;-90
2021/05/12 01:51:55;;;;;;;3.53;1.20;;;;;;;11.01;100.00;95734.47;6195669;23;20443;-91
2021/05/12 01:54:21;;;;;;;3.03;1.50;;;;;;;10.94;100.00;95737.25;6190328;23;20397;-90
2021/05/12 01:56:50;;;;;;;1.40;1.30;;;;;;;10.94;100.00;95743.38;6190267;23;20510;-91
2021/05/12 01:59:16;;;;;;;3.50;2.10;;;;;;;10.77;100.00;95735.31;6190376;23;20411;-91
2021/05/12 02:01:42;;;;;;;3.00;2.20;;;;;;;10.74;100.00;95741.81;6190916;23;20431;-91
2021/05/12 02:04:09;;;;;;;3.03;1.67;;;;;;;10.77;100.00;95738.69;6190560;23;20371;-91
2021/05/12 02:06:36;;;;;;;3.90;1.97;;;;;;;10.82;100.00;95736.31;6190460;23;20460;-91
2021/05/12 02:09:05;;;;;;;3.10;2.77;;;;;;;10.74;100.00;95745.19;6190397;23;20865;-91
2021/05/12 02:11:34;;;;;;;4.33;2.37;;;;;;;10.74;100.00;95734.41;6191442;23;20417;-91
2021/05/12 02:14:02;;;;;;;4.33;3.00;;;;;;;10.77;100.00;95732.59;6191695;23;20400;-91
2021/05/12 02:16:29;;;;;;;5.10;3.60;;;;;;;10.78;100.00;95731.31;6191590;23;20537;-91
2021/05/12 02:18:55;;;;;;;3.07;2.67;;;;;;;10.79;100.00;95734.72;6219800;23;20893;-92
2021/05/12 02:21:21;;;;;;;4.87;3.00;;;;;;;10.74;100.00;95736.41;6221507;23;20411;-92
2021/05/12 02:23:47;;;;;;;4.80;3.30;;;;;;;10.67;100.00;95740.63;6222973;23;20393;-95
2021/05/12 02:26:13;;;;;;;7.07;3.60;;;;;;;10.71;100.00;95734.84;6225338;23;20426;-95
2021/05/12 02:28:39;;;;;;;3.57;3.20;;;;;;;10.74;100.00;95731.03;6225941;23;20403;-95
2021/05/12 02:31:06;;;;;;;3.57;2.53;;;;;;;10.77;100.00;95723.78;6229980;23;20811;-94
2021/05/12 02:33:32;;;;;;;3.27;2.97;;;;;;;10.71;100.00;95724.72;6227922;23;20703;-95
2021/05/12 02:35:58;;;;;;;5.73;3.07;;;;;;;10.61;100.00;95723.97;6226421;23;20406;-94
2021/05/12 02:38:25;;;;;;;7.27;3.23;;;;;;;10.67;100.00;95723.72;6226383;23;20397;-94
2021/05/12 02:40:51;;;;;;;8.13;3.70;;;;;;;10.68;100.00;95725.84;6226397;23;20508;-94
2021/05/12 02:43:17;;;;;;;4.17;3.50;;;;;;;10.63;100.00;95729.50;6229453;23;20427;-95
2021/05/12 02:45:43;;;;;;;5.23;3.30;;;;;;;10.62;100.00;95719.97;6228015;23;20470;-95
2021/05/12 02:48:10;;;;;;;4.10;3.23;;;;;;;10.64;100.00;95728.25;6242085;23;20429;-92
2021/05/12 02:50:39;;;;;;;8.50;3.67;;;;;;;10.65;100.00;95720.88;6241033;23;20385;-91
2021/05/12 02:53:07;;;;;;;4.53;3.47;;;;;;;10.66;100.00;95725.69;6222646;23;20410;-92
2021/05/12 02:55:35;;;;;;;5.00;3.40;;;;;;;10.71;100.00;95724.72;6222346;23;20470;-91
2021/05/12 02:58:04;;;;;;;6.43;4.53;;;;;;;10.68;100.00;95725.84;6222945;23;20404;-91
2021/05/12 03:00:30;;;;;;;6.57;4.30;;;;;;;10.59;100.00;95720.38;6223256;23;20750;-91
2021/05/12 03:02:57;;;;;;;5.57;4.30;;;;;;;10.59;100.00;95721.09;6222113;23;20864;-90
2021/05/12 03:05:25;;;;;;;9.37;5.13;;;;;;;10.62;100.00;95732.75;6222268;23;20455;-90
2021/05/12 03:07:51;;;;;;;12.87;4.97;;;;;;;10.65;100.00;95728.97;6222089;23;20565;-90
2021/05/12 03:10:18;;;;;;;8.70;6.13;;;;;;;10.69;100.00;95726.56;6222480;23;20362;-90
2021/05/12 03:12:45;;;;;;;10.27;4.93;;;;;;;10.65;100.00;95726.25;6224618;23;20434;-90
2021/05/12 03:15:13;;;;;;;6.30;4.70;;;;;;;10.65;100.00;95737.75;6244934;23;20392;-93
2021/05/12 03:17:39;;;;;;;4.93;4.43;;;;;;;10.61;100.00;95736.72;6241209;23;20414;-91
2021/05/12 03:20:07;;;;;;;9.27;5.60;;;;;;;10.64;100.00;95739.03;6214716;23;20347;-91
2021/05/12 03:22:34;;;;;;;15.00;6.00;;;;;;;10.58;100.00;95732.44;6211678;23;20429;-92
2021/05/12 03:25:01;;;;;;;12.50;6.10;;;;;;;10.59;100.00;95736.56;6198176;23;20383;-92
2021/05/12 03:27:27;;;;;;;11.47;6.40;;;;;;;10.55;100.00;95731.56;6195105;23;20401;-91
2021/05/12 03:29:54;;;;;;;11.27;6.40;;;;;;;10.58;100.00;95743.22;6194250;23;20402;-91
2021/05/12 03:32:20;;;;;;;9.83;6.03;;;;;;;10.62;100.00;95744.25;6192873;23;20481;-91
2021/05/12 03:34:46;;;;;;;15.47;6.80;;;;;;;10.66;100.00;95744.56;6194298;23;20412;-91
2021/05/12 03:37:12;;;;;;;15.87;6.60;;;;;;;10.66;100.00;95743.84;6193099;23;21017;-90
2021/05/12 03:39:39;;;;;;;9.67;6.87;;;;;;;10.60;100.00;95738.00;6193170;23;20406;-91
2021/05/12 03:42:06;;;;;;;16.60;7.40;;;;;;;10.59;100.00;95741.94;6193399;23;20448;-91
2021/05/12 03:44:32;;;;;;;12.93;7.93;;;;;;;10.49;100.00;95747.28;6193125;23;20419;-91
2021/05/12 03:46:58;;;;;;;12.80;7.70;;;;;;;10.55;100.00;95736.97;6193337;23;20410;-91
2021/05/12 03:49:25;;;;;;;11.83;7.97;;;;;;;10.52;100.00;95740.06;6193702;23;20408;-91
2021/05/12 03:51:51;;;;;;;13.53;9.07;;;;;;;10.50;100.00;95739.88;6193110;23;20425;-91
2021/05/12 03:54:21;;;;;;;17.97;8.60;;;;;;;10.56;100.00;95741.06;6195347;23;20403;-91
2021/05/12 03:56:48;;;;;;;18.10;10.57;;;;;;;10.55;100.00;95744.34;6196002;23;20432;-92
2021/05/12 03:59:15;;;;;;;22.33;10.57;;;;;;;10.58;100.00;95741.25;6198632;23;20389;-95
2021/05/12 04:01:41;;;;;;;14.93;9.00;;;;;;;10.59;100.00;95739.25;6198982;23;20393;-95
2021/05/12 04:04:09;;;;;;;13.37;9.83;;;;;;;10.52;100.00;95748.16;6201429;23;20393;-95
2021/05/12 04:06:37;;;;;;;22.43;8.80;;;;;;;10.57;100.00;95747.91;6198289;23;20434;-92
2021/05/12 04:09:04;;;;;;;17.47;9.23;;;;;;;10.58;100.00;95752.03;6194485;23;20877;-92
2021/05/12 04:11:30;;;;;;;18.53;9.70;;;;;;;10.64;100.00;95741.72;6194589;23;20443;-91
2021/05/12 04:13:57;;;;;;;15.40;8.50;;;;;;;10.66;100.00;95749.25;6193508;23;20363;-92
2021/05/12 04:16:23;;;;;;;17.83;10.30;;;;;;;10.73;100.00;95748.47;6193494;23;20743;-92
2021/05/12 04:18:49;;;;;;;13.47;8.63;;;;;;;10.73;100.00;95746.50;6193847;23;20547;-92
2021/05/12 04:21:16;;;;;;;14.83;8.00;;;;;;;10.67;100.00;95737.19;6194682;23;20431;-92
2021/05/12 04:23:42;;;;;;;12.10;8.70;;;;;;;10.66;100.00;95741.16;6193801;23;20414;-91
2021/05/12 04:26:08;;;;;;;21.23;8.90;;;;;;;10.65;100.00;95737.06;6193372;23;20408;-91
2021/05/12 04:28:34;;;;;;;23.70;9.27;;;;;;;10.67;100.00;95737.91;6192631;23;20370;-91
2021/05/12 04:31:02;;;;;;;11.80;8.50;;;;;;;10.87;100.00;95746.19;6193352;23;20442;-91
2021/05/12 04:33:28;;;;;;;14.90;8.37;;;;;;;10.80;100.00;95749.66;6193665;23;20411;-91
2021/05/12 04:35:55;;;;;;;11.10;8.57;;;;;;;10.75;100.00;95749.34;6193856;23;20413;-91
2021/05/12 04:38:21;;;;;;;11.43;8.47;;;;;;;10.74;100.00;95753.28;6193788;23;20459;-90
2021/05/12 04:40:47;;;;;;;12.47;8.87;;;;;;;10.71;100.00;95757.09;6193548;23;20413;-91
2021/05/12 04:43:13;;;;;;;13.23;7.80;;;;;;;10.71;100.00;95751.03;6191881;23;20475;-91
2021/05/12 04:45:39;;;;;;;12.47;8.20;;;;;;;10.82;100.00;95755.22;6193670;23;20396;-91
2021/05/12 04:48:07;;;;;;;16.17;8.90;;;;;;;10.80;100.00;95763.16;6195674;23;20412;-91
2021/05/12 04:50:34;;;;;;;14.40;7.70;;;;;;;10.80;100.00;95761.19;6201622;23;20382;-91
2021/05/12 04:53:01;;;;;;;11.13;7.50;;;;;;;10.84;100.00;95764.16;6206597;23;20478;-91
2021/05/12 04:55:28;;;;;;;14.93;7.63;;;;;;;10.89;100.00;95760.53;6196072;23;20672;-92
2021/05/12 04:57:54;;;;;;;14.13;6.67;;;;;;;10.85;100.00;95765.59;6202836;23;20424;-91
2021/05/12 05:00:21;;;;;;;13.50;6.47;;;;;;;10.87;100.00;95773.16;6192122;23;20410;-91
2021/05/12 05:02:48;;;;;;;10.37;7.60;;;;;;;10.96;100.00;95786.03;6193351;23;20408;-91
2021/05/12 05:05:17;;;;;;;15.57;6.90;;;;;;;10.88;100.00;95783.38;6193506;23;20471;-91
2021/05/12 05:07:44;;;;;;;10.37;6.37;;;;;;;10.91;100.00;95786.97;6193267;23;20412;-92
2021/05/12 05:10:11;;;;;;;9.43;6.90;;;;;;;10.83;100.00;95783.63;6193128;23;20386;-91
2021/05/12 05:12:37;;;;;;;11.67;6.03;;;;;;;10.74;100.00;95785.00;6193104;23;20494;-92
2021/05/12 05:15:04;;;;;;;11.73;6.80;;;;;;;10.86;100.00;95790.63;6193215;23;20430;-92
2021/05/12 05:17:32;;;;;;;12.93;6.33;;;;;;;10.86;100.00;95796.00;6192177;23;21073;-92
2021/05/12 05:19:59;;;;;;;7.70;5.83;;;;;;;10.86;100.00;95799.44;6194106;23;20746;-91
2021/05/12 05:22:28;;;;;;;13.70;7.37;;;;;;;10.85;100.00;95794.59;6193269;23;20371;-92
2021/05/12 05:24:55;;;;;;;11.37;6.63;;;;;;;10.83;100.00;95795.16;6193851;23;20400;-90
2021/05/12 05:27:22;;;;;;;10.23;6.63;;;;;;;10.86;100.00;95796.75;6195369;23;20793;-92
2021/05/12 05:29:49;;;;;;;8.10;6.10;;;;;;;10.82;100.00;95795.69;6210809;23;20399;-91
2021/05/12 05:32:17;;;;;;;10.13;7.50;;;;;;;10.79;100.00;95794.09;6213154;23;20514;-91
2021/05/12 05:34:44;;;;;;;8.47;6.43;;;;;;;10.71;100.00;95800.28;6213516;23;20392;-92
2021/05/12 05:37:10;;;;;;;6.60;5.73;;;;;;;10.77;100.00;95794.66;6207580;23;20856;-91
2021/05/12 05:39:37;;;;;;;10.80;5.97;;;;;;;10.89;100.00;95803.00;6201118;23;20431;-91
2021/05/12 05:42:04;;;;;;;12.80;6.97;;;;;;;10.86;100.00;95799.44;6196225;23;20392;-91
2021/05/12 05:44:30;;;;;;;10.70;5.70;;;;;;;10.77;100.00;95802.03;6198061;23;20412;-91
2021/05/12 05:46:56;;;;;;;10.83;5.80;;;;;;;10.70;100.00;95798.88;6195590;23;20431;-92
2021/05/12 05:49:23;;;;;;;8.30;6.10;;;;;;;10.72;100.00;95795.59;6198430;23;20392;-92
2021/05/12 05:51:49;;;;;;;7.30;5.90;;;;;;;10.76;100.00;95804.03;6196425;23;20451;-91
2021/05/12 05:54:16;;;;;;;8.03;6.33;;;;;;;10.80;100.00;95795.53;6198196;23;20789;-92
2021/05/12 05:56:43;;;;;;;9.67;5.73;;;;;;;10.90;100.00;95815.25;6198458;23;20424;-91
2021/05/12 05:59:09;;;;;;;7.43;5.60;;;;;;;10.92;100.00;95812.69;6198624;23;20392;-89
2021/05/12 06:01:35;;;;;;;8.43;5.20;;;;;;;10.93;100.00;95803.31;6194997;23;20495;-88
2021/05/12 06:04:02;;;;;;;8.50;5.27;;;;;;;10.90;100.00;95813.22;6194988;23;20736;-90
2021/05/12 06:06:28;;;;;;;7.33;4.60;;;;;;;10.98;100.00;95810.47;6197580;23;20420;-91
2021/05/12 06:08:54;;;;;;;7.70;5.00;;;;;;;10.95;100.00;95817.69;6212796;23;20386;-91
2021/05/12 06:11:21;;;;;;;5.90;4.53;;;;;;;10.90;99.05;95815.94;6212903;23;20443;-89
2021/05/12 06:14:23;;;;;;;11.63;5.27;;;;;;;10.91;98.79;95813.94;6214615;23;20373;-92
2021/05/12 06:16:49;;;;;;;6.90;5.43;;;;;;;10.97;98.44;95817.13;6205182;23;20512;-89
2021/05/12 06:19:16;;;;;;;5.53;4.60;;;;;;;10.89;98.51;95819.19;6205560;23;20399;-90
2021/05/12 06:21:42;;;;;;;5.87;4.73;;;;;;;10.96;98.79;95821.84;6212314;23;20370;-92
2021/05/12 06:24:08;;;;;;;6.07;4.80;;;;;;;10.93;98.03;95824.91;6196374;23;20363;-91
2021/05/12 06:26:36;;;;;;;19.60;5.00;;;;;;;11.08;98.23;95827.47;6195717;23;20402;-90
2021/05/12 06:29:03;;;;;;;6.30;4.50;;;;;;;10.97;97.96;95825.22;6197015;23;20440;-90
2021/05/12 06:31:30;;;;;;;8.80;4.83;;;;;;;10.96;97.96;95821.13;6196949;23;20505;-92
2021/05/12 06:33:57;;;;;;;10.27;4.70;;;;;;;10.90;98.40;95820.63;6197063;23;20414;-92
2021/05/12 06:36:23;;;;;;;5.50;3.80;;;;;;;10.95;97.51;95820.41;6196934;23;20517;-89
2021/05/12 06:38:50;;;;;;;6.40;4.43;;;;;;;11.03;97.55;95815.63;6197046;23;20414;-89
2021/05/12 06:41:16;;;;;;;8.70;3.73;;;;;;;11.12;97.06;95831.19;6196197;23;20407;-91
2021/05/12 06:43:42;;;;;;;9.10;5.00;;;;;;;11.09;96.95;95826.91;6198698;23;20389;-92
2021/05/12 06:46:08;;;;;;;7.67;5.17;;;;;;;11.17;96.85;95821.41;6200810;23;20394;-89
2021/05/12 06:48:36;;;;;;;11.03;4.23;;;;;;;11.24;96.25;95824.03;6198549;23;20392;-90
2021/05/12 06:51:02;;;;;;;5.87;3.47;;;;;;;11.33;95.89;95813.88;6198503;23;20388;-90
2021/05/12 06:53:31;;;;;;;5.57;4.07;;;;;;;11.38;94.52;95818.28;6198254;23;20416;-89
2021/05/12 06:55:58;;;;;;;7.50;4.00;;;;;;;11.33;94.50;95828.09;6198101;23;20411;-89
2021/05/12 06:58:25;;;;;;;5.87;4.00;;;;;;;11.33;94.61;95827.38;6198054;23;20385;-90
2021/05/12 07:00:52;;;;;;;4.90;3.50;;;;;;;11.35;93.80;95832.91;6196407;23;20374;-90
2021/05/12 07:03:19;;;;;;;7.03;3.67;;;;;;;11.32;94.77;95834.75;6199527;23;20400;-89
2021/05/12 07:05:46;;;;;;;6.43;3.83;;;;;;;11.31;95.23;95829.91;6203696;23;20371;-91
2021/05/12 07:08:13;;;;;;;7.20;3.47;;;;;;;11.33;95.60;95843.56;6209551;23;20391;-92
2021/05/12 07:10:39;;;;;;;8.57;4.03;;;;;;;11.36;95.35;95840.47;6203648;23;20400;-93
2021/05/12 07:13:05;;;;;;;7.00;3.33;;;;;;;11.45;95.20;95839.81;6195767;23;20934;-93
2021/05/12 07:15:31;;;;;;;7.97;3.70;;;;;;;11.56;94.36;95835.94;6196599;23;20439;-94
2021/05/12 07:17:57;;;;;;;9.10;4.17;;;;;;;11.62;94.44;95845.19;6199647;23;20455;-96
2021/05/12 07:20:24;;;;;;;5.20;3.50;;;;;;;11.61;93.71;95838.38;6207412;23;20374;-96
2021/05/12 07:22:51;;;;;;;7.10;3.20;;;;;;;11.61;92.80;95843.78;6205108;23;20374;-95
2021/05/12 07:25:18;;;;;;;6.83;3.60;;;;;;;11.65;92.24;95835.28;6207544;23;20737;-92
2021/05/12 07:27:44;;;;;;;6.30;3.37;;;;;;;11.68;91.56;95829.44;6196470;23;20425;-92
2021/05/12 07:30:10;;;;;;;6.73;3.93;;;;;;;11.58;91.50;95834.09;6196060;23;20407;-90
2021/05/12 07:32:37;;;;;;;5.43;3.50;;;;;;;11.60;92.05;95834.22;6193800;23;20447;-90
2021/05/12 07:35:03;;;;;;;3.80;3.50;;;;;;;11.64;92.36;95831.84;6194646;23;20420;-91
2021/05/12 07:37:30;;;;;;;4.63;3.33;;;;;;;11.64;92.47;95829.16;6197623;23;20435;-93
2021/05/12 07:40:00;;;;;;;14.27;3.40;;;;;;;11.60;92.19;95828.13;6206905;23;20435;-93
2021/05/12 07:42:27;;;;;;;6.03;3.60;;;;;;;11.60;93.05;95817.31;6213019;23;20501;-96
2021/05/12 07:44:55;;;;;;;5.40;2.97;;;;;;;11.56;93.26;95820.41;6213570;23;20363;-94
2021/05/12 07:47:30;;;;;;;6.33;3.90;;;;;;;11.61;91.73;95814.06;6212849;23;20408;-95
2021/05/12 07:49:58;;;;;;;6.20;2.50;;;;;;;11.63;91.47;95814.19;6214118;23;20382;-93
2021/05/12 07:52:25;;;;;;;5.97;3.50;;;;;;;11.57;92.05;95821.13;6213079;23;20418;-95
2021/05/12 07:54:53;;;;;;;6.30;3.50;;;;;;;11.49;91.41;95810.44;6212410;23;20490;-94
2021/05/12 07:57:23;;;;;;;5.47;3.30;;;;;;;11.50;91.27;95805.72;6212687;23;20422;-95
2021/05/12 07:59:50;;;;;;;6.20;3.33;;;;;;;11.30;92.63;95813.00;6213362;23;20428;-95
2021/05/12 08:02:20;;;;;;;6.00;3.00;;;;;;;11.28;92.84;95812.81;6211980;23;20419;-96
2021/05/12 08:04:46;;;;;;;5.27;2.80;;;;;;;11.31;92.45;95811.72;6211092;23;20468;-92
2021/05/12 08:07:16;;;;;;;6.40;3.40;;;;;;;11.33;92.49;95811.16;6211311;23;20416;-94
2021/05/12 08:09:42;;;;;;;6.03;2.67;;;;;;;11.41;93.01;95811.78;6212894;23;20366;-93
2021/05/12 08:12:09;;;;;;;5.50;3.20;;;;;;;11.41;92.24;95814.47;6211938;23;20454;-94
2021/05/12 08:14:36;;;;;;;6.00;3.70;;;;;;;11.28;93.15;95816.25;6211373;23;20390;-95
2021/05/12 08:17:04;;;;;;;8.87;3.80;;;;;;;11.30;93.50;95810.28;6210500;23;20423;-95
2021/05/12 08:19:31;;;;;;;7.90;3.90;;;;;;;11.22;93.27;95821.16;6211887;23;20389;-91
2021/05/12 08:21:59;;;;;;;5.80;3.40;;;;;;;11.27;93.31;95817.53;6209811;23;20398;-95
2021/05/12 08:24:29;;;;;;;7.13;3.50;;;;;;;11.40;93.03;95819.19;6205851;23;20394;-96
2021/05/12 08:27:01;;;;;;;6.93;4.27;;;;;;;11.34;93.33;95821.41;6208106;23;20450;-95
2021/05/12 08:29:29;;;;;;;8.60;5.03;;;;;;;11.39;92.83;95819.72;6210928;23;20394;-96
2021/05/12 08:31:58;;;;;;;5.60;3.60;;;;;;;11.39;92.29;95819.72;6209918;23;20443;-96
2021/05/12 08:34:32;;;;;;;10.10;3.37;;;;;;;11.35;92.29;95816.72;6207526;23;20390;-95
2021/05/12 08:37:00;;;;;;;5.10;2.90;;;;;;;11.35;93.28;95808.59;6208782;23;20743;-95
2021/05/12 08:39:28;;;;;;;6.13;3.10;;;;;;;11.30;93.21;95818.41;6211566;23;20408;-96
2021/05/12 08:41:56;;;;;;;7.50;3.60;;;;;;;11.39;93.23;95814.34;6208655;23;20467;-96
2021/05/12 08:44:30;;;;;;;7.27;3.00;;;;;;;11.43;93.20;95820.78;6208173;23;20419;-95
2021/05/12 08:47:03;;;;;;;17.43;3.50;;;;;;;11.45;92.24;95820.91;6207328;23;20420;-96
2021/05/12 08:49:38;;;;;;;5.57;3.60;;;;;;;11.51;92.55;95817.97;6208657;23;20388;-96
2021/05/12 08:52:07;;;;;;;3.83;3.17;;;;;;;11.61;91.74;95830.28;6210051;23;20424;-96
2021/05/12 08:54:34;;;;;;;3.90;3.00;;;;;;;11.58;91.83;95814.47;6198623;23;20392;-89
2021/05/12 08:57:00;;;;;;;4.13;3.03;;;;;;;11.59;92.50;95816.59;6199034;23;20415;-93
2021/05/12 08:59:26;;;;;;;4.87;3.20;;;;;;;11.72;92.09;95821.66;6201566;23;20374;-92
2021/05/12 09:01:52;;;;;;;5.20;3.90;;;;;;;11.79;91.39;95812.75;6202669;23;20707;-93
2021/05/12 09:04:21;;;;;;;4.63;3.30;;;;;;;11.84;90.94;95813.75;6201188;23;20388;-90
2021/05/12 09:06:47;;;;;;;8.67;3.73;;;;;;;11.85;90.68;95811.78;6213057;23;20496;-90
2021/05/12 09:09:14;;;;;;;6.17;2.70;;;;;;;11.92;90.83;95813.66;6212945;23;20376;-88
2021/05/12 09:11:40;;;;;;;6.53;3.10;;;;;;;11.98;89.87;95811.41;6212554;23;20448;-89
2021/05/12 09:14:30;;;;;;;4.47;2.70;;;;;;;12.01;88.41;95816.41;6207692;23;20388;-89
2021/05/12 09:16:56;;;;;;;4.10;2.90;;;;;;;12.03;87.75;95805.06;6200282;23;20428;-91
2021/05/12 09:19:25;;;;;;;5.43;2.83;;;;;;;12.12;88.26;95812.50;6198539;23;20404;-91
2021/05/12 09:21:53;;;;;;;5.57;3.50;;;;;;;12.05;87.48;95810.59;6196934;23;20403;-90
2021/05/12 09:24:29;;;;;;;6.60;3.90;;;;;;;11.87;88.33;95809.97;6199774;23;20458;-88
2021/05/12 09:26:57;;;;;;;14.10;3.40;;;;;;;11.85;88.42;95814.47;6199438;23;20449;-87
2021/05/12 09:29:25;;;;;;;13.83;3.83;;;;;;;12.01;87.73;95819.13;6195992;23;20473;-90
2021/05/12 09:31:52;;;;;;;6.00;3.17;;;;;;;11.93;87.81;95820.50;6197250;23;20543;-92
2021/05/12 09:34:18;;;;;;;6.00;3.17;;;;;;;11.82;88.38;95819.03;6197194;23;20400;-91
2021/05/12 09:36:45;;;;;;;6.60;3.40;;;;;;;11.86;87.65;95826.72;6197211;23;20431;-92
2021/05/12 09:39:15;;;;;;;5.63;3.37;;;;;;;11.90;87.04;95827.75;6199123;23;20417;-90
2021/05/12 09:41:43;;;;;;;6.90;3.70;;;;;;;11.70;87.60;95826.22;6199985;23;20400;-91
2021/05/12 09:44:10;;;;;;;5.80;3.43;;;;;;;11.76;88.68;95824.69;6198113;23;20486;-92
2021/05/12 09:46:39;;;;;;;10.20;3.63;;;;;;;11.87;87.71;95818.06;6208730;23;20407;-92
2021/05/12 09:49:08;;;;;;;5.30;3.37;;;;;;;11.95;86.81;95817.94;6211342;23;20415;-92
2021/05/12 09:51:38;;;;;;;8.93;3.13;;;;;;;12.08;85.51;95820.28;6209073;23;20451;-92
2021/05/12 09:54:07;;;;;;;6.30;2.80;;;;;;;12.04;86.24;95822.69;6209212;23;20378;-92
2021/05/12 09:56:49;;;;;;;5.97;2.93;;;;;;;12.03;86.31;95818.56;6210824;23;20411;-92
2021/05/12 09:59:19;;;;;;;5.33;2.80;;;;;;;12.18;85.09;95815.63;6206435;23;20389;-92
2021/05/12 10:01:48;;;;;;;5.67;3.50;;;;;;;12.16;85.91;95815.47;6204601;23;20400;-91
2021/05/12 10:04:30;;;;;;;9.37;3.63;;;;;;;12.20;86.03;95811.09;6203606;23;20357;-95
2021/05/12 10:06:57;;;;;;;5.57;2.60;;;;;;;12.10;86.54;95807.63;6202085;23;20431;-90
2021/05/12 10:09:26;;;;;;;8.77;3.63;;;;;;;12.14;85.49;95815.34;6197944;23;20768;-87
2021/05/12 10:12:07;;;;;;;10.60;3.30;;;;;;;12.04;86.09;95809.16;6199288;23;20451;-89
2021/05/12 10:14:35;;;;;;;5.80;3.30;;;;;;;12.06;86.06;95806.63;6202135;23;20347;-90
2021/05/12 10:17:02;;;;;;;9.37;6.27;;;;;;;12.13;85.29;95811.19;6199791;23;20415;-91
2021/05/12 10:19:28;;;;;;;10.30;5.33;;;;;;;12.29;86.03;95807.69;6200208;23;20411;-91
2021/05/12 10:21:55;;;;;;;6.73;4.40;;;;;;;12.33;85.90;95801.88;6198171;23;20393;-90
2021/05/12 10:27:36;;;;;;;5.40;3.57;;;;;;;12.50;84.66;95796.34;6197691;23;20416;-90
2021/05/12 10:32:54;;;;;;;7.00;3.03;;;;;;;12.41;85.03;95797.06;6196173;23;20447;-88
2021/05/12 10:38:47;;;;;;;4.17;3.23;;;;;;;12.61;83.85;95795.81;6200297;23;20459;-88
2021/05/12 10:44:40;;;;;;;7.90;3.50;;;;;;;12.82;83.22;95796.00;6200128;23;20373;-91
2021/05/12 10:55:01;;;;;;;3.93;3.13;;;;;;;12.66;84.09;95800.25;6214137;23;20452;-90
2021/05/12 10:57:49;;;;;;;3.40;2.93;;;;;;;12.59;84.42;95794.97;6181592;23;20398;-91
2021/05/12 11:00:17;;;;;;;4.93;3.03;;;;;;;12.27;85.80;95794.03;6199354;23;20387;-90
2021/05/12 11:03:03;;;;;;;9.40;3.10;;;;;;;12.31;85.42;95793.59;6199282;23;20479;-92
2021/05/12 11:06:01;;;;;;;6.03;3.10;;;;;;;12.36;85.21;95795.34;6198450;23;20372;-91
2021/05/12 11:08:27;;;;;;;4.40;2.80;;;;;;;12.29;84.55;95798.88;6197871;23;20423;-91
2021/05/12 11:11:00;;;;;;;6.67;3.37;;;;;;;12.38;84.98;95787.34;6199250;23;20463;-91
2021/05/12 11:13:28;;;;;;;13.30;3.17;;;;;;;12.33;85.07;95791.78;6198681;23;20402;-90
2021/05/12 11:15:56;;;;;;;7.43;3.10;;;;;;;12.36;85.55;95789.94;6196595;23;20416;-91
2021/05/12 11:18:50;;;;;;;4.97;3.27;;;;;;;12.44;85.30;95782.38;6197783;23;20413;-91
2021/05/12 11:21:27;;;;;;;3.70;3.30;;;;;;;12.39;83.54;95782.66;6196529;23;20415;-90
2021/05/12 11:24:18;;;;;;;7.30;3.50;;;;;;;12.53;83.29;95770.88;6197867;23;20743;-91
2021/05/12 11:26:55;;;;;;;6.57;3.53;;;;;;;12.65;83.42;95774.47;6206215;23;20446;-91
2021/05/12 11:32:12;;;;;;;8.60;2.97;;;;;;;13.01;79.75;95770.19;6165208;23;20432;-90
2021/05/12 11:34:39;;;;;;;4.20;2.70;;;;;;;13.09;79.39;95768.81;6195449;23;20913;-90
2021/05/12 11:37:10;;;;;;;8.80;2.90;;;;;;;13.11;79.98;95762.81;6196341;23;20427;-91
2021/05/12 11:39:38;;;;;;;9.73;3.00;;;;;;;13.19;79.24;95771.50;6198573;23;20485;-91
2021/05/12 11:42:19;;;;;;;3.20;2.10;;;;;;;13.37;78.49;95770.06;6199216;23;20470;-91
2021/05/12 11:45:17;;;;;;;5.53;2.40;;;;;;;13.56;77.56;95774.75;6195581;23;20384;-90
2021/05/12 11:47:57;;;;;;;5.03;2.50;;;;;;;13.60;76.29;95762.16;6197086;23;20435;-91
2021/05/12 11:53:10;;;;;;;8.73;2.63;;;;;;;13.78;77.51;95773.53;6211401;23;20452;-96
2021/05/12 11:55:37;;;;;;;4.10;2.50;;;;;;;13.96;77.47;95772.06;6212622;23;20606;-91
2021/05/12 11:58:09;;;;;;;4.03;2.30;;;;;;;14.19;75.77;95771.53;6211954;23;20427;-90